Time;durP1;ratioP1;P1;durP2;ratioP2;P2;SDS_P1;SDS_P2;PMS_P1;PMS_P2;Temp;Humidity;BMP_temperature;BMP_pressure;BME280_temperature;BME280_humidity;BME280_pressure;Samples;Min_cycle;Max_cycle;Signal;HPM_P1;HPM_P2
2023/04/11 00:00:28;;;;;;;8.25;4.35;;;;;;;9.00;100.00;100504.00;6007918;23;20034;-69
2023/04/11 00:03:00;;;;;;;3.90;3.70;;;;;;;8.97;100.00;100499.72;5991612;23;20524;-70
2023/04/11 00:05:30;;;;;;;4.00;3.80;;;;;;;9.08;100.00;100493.13;6000900;23;20066;-69
2023/04/11 00:07:56;;;;;;;4.47;4.28;;;;;;;8.96;100.00;100484.97;5995372;23;20376;-69
2023/04/11 00:10:23;;;;;;;4.35;4.03;;;;;;;9.08;100.00;100512.31;5973842;23;20183;-71
2023/04/11 00:12:55;;;;;;;4.75;4.40;;;;;;;8.79;100.00;100464.00;5996432;23;20118;-69
2023/04/11 00:15:25;;;;;;;5.82;3.80;;;;;;;9.15;100.00;100510.22;6002727;23;20051;-69
2023/04/11 00:17:52;;;;;;;3.97;3.72;;;;;;;8.85;100.00;100457.63;5992714;23;20023;-70
2023/04/11 00:20:19;;;;;;;3.78;3.58;;;;;;;9.19;100.00;100498.69;5981088;23;20030;-70
2023/04/11 00:22:46;;;;;;;9.10;4.03;;;;;;;9.21;100.00;100504.69;6001199;23;20047;-71
2023/04/11 00:25:14;;;;;;;3.90;3.70;;;;;;;8.97;100.00;100444.75;6003998;23;20027;-69
2023/04/11 00:27:40;;;;;;;4.03;3.83;;;;;;;9.06;100.00;100443.47;6000854;23;20023;-70
2023/04/11 00:30:07;;;;;;;3.92;3.72;;;;;;;9.38;100.00;100499.47;5993295;23;21037;-71
2023/04/11 00:32:34;;;;;;;4.65;4.40;;;;;;;9.34;100.00;100487.44;5996688;23;20026;-70
2023/04/11 00:35:00;;;;;;;5.00;4.43;;;;;;;8.57;100.00;100352.53;5998212;23;20505;-69
2023/04/11 00:37:27;;;;;;;4.30;4.10;;;;;;;9.25;100.00;100461.72;6001819;23;20051;-69
2023/04/11 00:39:54;;;;;;;4.30;4.10;;;;;;;9.39;100.00;100495.06;5987827;23;20027;-69
2023/04/11 00:42:21;;;;;;;4.82;4.43;;;;;;;9.46;100.00;100491.22;5999059;23;20164;-70
2023/04/11 00:44:48;;;;;;;4.53;4.10;;;;;;;8.92;100.00;100419.75;5998031;23;20479;-71
2023/04/11 00:47:14;;;;;;;6.15;4.60;;;;;;;9.50;100.00;100518.97;5994980;23;20023;-70
2023/04/11 00:49:41;;;;;;;3.70;3.60;;;;;;;9.08;100.00;100438.16;6002908;23;20027;-70
2023/04/11 00:52:08;;;;;;;3.70;3.50;;;;;;;9.08;100.00;100452.09;6001308;23;20032;-71
2023/04/11 00:54:34;;;;;;;4.38;4.18;;;;;;;9.36;100.00;100496.06;5991795;23;20265;-69
2023/04/11 00:57:03;;;;;;;8.38;4.95;;;;;;;9.17;100.00;100459.47;5999898;23;20665;-70
2023/04/11 00:59:31;;;;;;;13.73;3.90;;;;;;;9.41;100.00;100476.66;6000799;23;20031;-69
2023/04/11 01:01:58;;;;;;;11.70;4.40;;;;;;;9.49;100.00;100492.84;5998701;23;20175;-70
2023/04/11 01:04:26;;;;;;;3.83;3.67;;;;;;;9.50;100.00;100492.75;5976838;23;20030;-70
2023/04/11 01:07:02;;;;;;;4.18;3.97;;;;;;;8.93;100.00;100400.50;6004448;23;20756;-70
2023/04/11 01:09:33;;;;;;;4.00;3.80;;;;;;;9.46;100.00;100472.03;5993525;23;20047;-69
2023/04/11 01:12:01;;;;;;;7.38;4.70;;;;;;;8.94;100.00;100394.34;5979001;23;20027;-69
2023/04/11 01:14:28;;;;;;;8.13;4.32;;;;;;;9.40;100.00;100473.19;5990388;23;20023;-70
2023/04/11 01:16:56;;;;;;;4.40;4.10;;;;;;;9.08;100.00;100415.44;5973928;23;20035;-70
2023/04/11 01:19:25;;;;;;;7.53;3.80;;;;;;;8.84;100.00;100395.72;6001553;23;20031;-70
2023/04/11 01:21:52;;;;;;;7.07;4.90;;;;;;;9.23;100.00;100458.31;5994267;23;20027;-71
2023/04/11 01:24:19;;;;;;;4.50;4.10;;;;;;;9.13;100.00;100452.69;6002643;23;20027;-70
2023/04/11 01:26:45;;;;;;;4.85;4.43;;;;;;;8.76;100.00;100411.81;5989093;23;20023;-70
2023/04/11 01:29:12;;;;;;;4.00;3.80;;;;;;;8.87;100.00;100440.06;6004263;23;20034;-70
2023/04/11 01:31:38;;;;;;;4.50;4.20;;;;;;;8.66;100.00;100421.03;5994862;23;20082;-70
2023/04/11 01:34:05;;;;;;;10.18;4.65;;;;;;;8.42;100.00;100371.63;5999355;23;20090;-70
2023/04/11 01:36:31;;;;;;;7.28;4.35;;;;;;;9.01;100.00;100445.47;5993261;23;20101;-69
2023/04/11 01:38:58;;;;;;;9.13;4.82;;;;;;;8.51;100.00;100372.94;6004455;23;20071;-70
2023/04/11 01:41:25;;;;;;;5.20;4.47;;;;;;;9.03;100.00;100455.88;6007336;23;20055;-70
2023/04/11 01:43:52;;;;;;;4.50;4.22;;;;;;;8.92;100.00;100441.53;6003767;23;20082;-70
2023/04/11 01:46:20;;;;;;;4.30;4.00;;;;;;;8.53;100.00;100366.69;6013365;23;20041;-69
2023/04/11 01:48:49;;;;;;;8.30;4.15;;;;;;;8.97;100.00;100439.53;6008625;23;20387;-70
2023/04/11 01:51:16;;;;;;;4.50;4.10;;;;;;;9.05;100.00;100459.25;6014752;23;20868;-70
2023/04/11 01:53:42;;;;;;;5.85;4.53;;;;;;;9.05;100.00;100461.88;6003918;23;20040;-70
2023/04/11 01:56:09;;;;;;;4.20;3.90;;;;;;;9.01;100.00;100469.03;6011363;23;20026;-71
2023/04/11 01:58:35;;;;;;;5.80;4.65;;;;;;;8.93;100.00;100461.53;6002365;23;20039;-70
2023/04/11 02:01:02;;;;;;;7.95;4.43;;;;;;;8.93;100.00;100484.25;6010206;23;20047;-70
2023/04/11 02:03:28;;;;;;;4.70;4.30;;;;;;;8.74;100.00;100459.00;6000521;23;20090;-70
2023/04/11 02:05:55;;;;;;;5.88;3.75;;;;;;;8.52;100.00;100419.06;6013122;23;20470;-70
2023/04/11 02:08:22;;;;;;;4.60;4.20;;;;;;;8.49;100.00;100391.31;5999954;23;20027;-70
2023/04/11 02:10:48;;;;;;;4.97;4.28;;;;;;;8.71;100.00;100435.56;6012937;23;20041;-70
2023/04/11 02:13:15;;;;;;;3.63;3.47;;;;;;;8.55;100.00;100409.31;6005493;23;20632;-70
2023/04/11 02:15:41;;;;;;;9.32;3.72;;;;;;;8.77;100.00;100447.53;6012147;23;20042;-70
2023/04/11 02:18:08;;;;;;;3.70;3.50;;;;;;;8.54;100.00;100409.41;6008840;23;20051;-70
2023/04/11 02:20:36;;;;;;;7.38;4.07;;;;;;;8.85;100.00;100484.63;6000622;23;20016;-70
2023/04/11 02:23:03;;;;;;;3.80;3.60;;;;;;;8.73;100.00;100478.22;6007389;23;20078;-70
2023/04/11 02:25:30;;;;;;;9.32;4.45;;;;;;;8.68;100.00;100472.38;5997661;23;21467;-70
2023/04/11 02:27:56;;;;;;;4.50;4.15;;;;;;;8.30;100.00;100429.66;6000529;23;20610;-70
2023/04/11 02:30:23;;;;;;;4.10;3.70;;;;;;;8.45;100.00;100459.53;6009459;23;20577;-70
2023/04/11 02:32:49;;;;;;;6.10;3.90;;;;;;;8.05;100.00;100403.84;5982610;23;20038;-70
2023/04/11 02:35:16;;;;;;;19.00;4.55;;;;;;;8.01;100.00;100421.44;6008904;23;20097;-70
2023/04/11 02:37:43;;;;;;;3.80;3.60;;;;;;;7.74;100.00;100395.66;6005168;23;20928;-70
2023/04/11 02:40:10;;;;;;;4.97;4.47;;;;;;;8.31;100.00;100481.06;5982351;23;20025;-71
2023/04/11 02:42:38;;;;;;;4.63;4.20;;;;;;;8.21;100.00;100485.84;6004301;23;20631;-70
2023/04/11 02:45:05;;;;;;;7.85;4.13;;;;;;;8.21;100.00;100495.47;5993749;23;20099;-69
2023/04/11 02:47:32;;;;;;;8.40;4.00;;;;;;;7.93;100.00;100460.97;6006958;23;20055;-70
2023/04/11 02:49:58;;;;;;;17.60;4.65;;;;;;;7.33;100.00;100376.59;5999315;23;20578;-70
2023/04/11 02:52:25;;;;;;;5.65;5.10;;;;;;;8.07;100.00;100509.16;5994470;23;20470;-70
2023/04/11 02:54:51;;;;;;;5.63;4.05;;;;;;;8.01;100.00;100515.50;6006748;23;20038;-70
2023/04/11 02:57:17;;;;;;;3.67;3.38;;;;;;;7.99;100.00;100512.13;5981281;23;20038;-70
2023/04/11 02:59:44;;;;;;;19.65;5.03;;;;;;;7.36;100.00;100423.47;6000370;23;20034;-70
2023/04/11 03:02:10;;;;;;;4.20;3.92;;;;;;;7.92;100.00;100513.31;5996665;23;20027;-70
2023/04/11 03:04:37;;;;;;;3.97;3.60;;;;;;;7.52;100.00;100461.03;5978725;23;20039;-70
2023/04/11 03:07:04;;;;;;;9.95;4.57;;;;;;;7.65;100.00;100481.41;5999985;23;20039;-70
2023/04/11 03:09:31;;;;;;;6.55;4.22;;;;;;;7.58;100.00;100488.66;6002786;23;20043;-69
2023/04/11 03:11:57;;;;;;;5.85;3.97;;;;;;;7.85;100.00;100515.34;6005935;23;20019;-70
2023/04/11 03:14:24;;;;;;;4.70;4.18;;;;;;;7.85;100.00;100524.94;5994418;23;20048;-69
2023/04/11 03:16:50;;;;;;;11.60;4.20;;;;;;;7.94;100.00;100501.03;5996463;23;20062;-70
2023/04/11 03:19:16;;;;;;;4.47;4.07;;;;;;;7.91;100.00;100515.06;5994833;23;20055;-70
2023/04/11 03:21:43;;;;;;;5.53;4.15;;;;;;;7.84;100.00;100511.03;6001388;23;20039;-70
2023/04/11 03:24:11;;;;;;;10.15;4.45;;;;;;;7.68;100.00;100487.34;5994219;23;20043;-69
2023/04/11 03:26:37;;;;;;;22.85;5.03;;;;;;;7.69;100.00;100496.88;6000780;23;20066;-70
2023/04/11 03:29:04;;;;;;;7.70;4.55;;;;;;;7.60;100.00;100492.06;6006118;23;20054;-70
2023/04/11 03:31:30;;;;;;;9.30;4.22;;;;;;;7.71;100.00;100507.25;5992777;23;20030;-70
2023/04/11 03:33:58;;;;;;;10.52;4.10;;;;;;;7.66;100.00;100510.06;6004459;23;20038;-69
2023/04/11 03:36:25;;;;;;;5.32;4.53;;;;;;;7.69;100.00;100509.09;5994590;23;20054;-69
2023/04/11 03:38:52;;;;;;;4.72;4.53;;;;;;;7.28;100.00;100462.94;6002607;23;20031;-69
2023/04/11 03:41:21;;;;;;;8.93;4.15;;;;;;;7.31;100.00;100498.50;5995735;23;20055;-69
2023/04/11 03:43:47;;;;;;;4.07;3.88;;;;;;;7.52;100.00;100526.31;6001930;23;20109;-69
2023/04/11 03:46:14;;;;;;;8.65;4.45;;;;;;;7.57;100.00;100531.34;5983935;23;21282;-70
2023/04/11 03:48:40;;;;;;;4.05;3.78;;;;;;;7.47;100.00;100527.44;5970041;23;20027;-70
2023/04/11 03:51:07;;;;;;;10.20;5.20;;;;;;;7.42;100.00;100519.81;6008598;23;20047;-69
2023/04/11 03:53:33;;;;;;;5.93;3.70;;;;;;;7.32;100.00;100516.72;5965753;23;20105;-70
2023/04/11 03:56:00;;;;;;;5.97;4.10;;;;;;;7.51;100.00;100539.44;6002540;23;20082;-69
2023/04/11 03:58:26;;;;;;;25.17;4.47;;;;;;;7.17;100.00;100491.25;5998778;23;20039;-70
2023/04/11 04:00:53;;;;;;;6.60;4.43;;;;;;;7.29;100.00;100510.78;5987515;23;20031;-70
2023/04/11 04:03:19;;;;;;;3.53;3.38;;;;;;;7.68;100.00;100559.63;6003106;23;20126;-70
2023/04/11 04:05:46;;;;;;;4.35;4.13;;;;;;;7.67;100.00;100555.31;5988697;23;20038;-70
2023/04/11 04:08:12;;;;;;;4.90;3.60;;;;;;;7.41;100.00;100502.41;6000482;23;20019;-70
2023/04/11 04:10:39;;;;;;;5.55;3.90;;;;;;;7.87;100.00;100544.00;5990886;23;20054;-70
2023/04/11 04:13:05;;;;;;;3.80;3.60;;;;;;;8.00;100.00;100558.25;6002810;23;20031;-71
2023/04/11 04:15:32;;;;;;;3.63;3.42;;;;;;;7.78;100.00;100519.16;6004172;23;20096;-70
2023/04/11 04:17:59;;;;;;;5.60;4.55;;;;;;;7.92;100.00;100537.69;5996250;23;20035;-70
2023/04/11 04:20:25;;;;;;;4.13;3.70;;;;;;;7.94;100.00;100554.13;5991026;23;20050;-70
2023/04/11 04:22:52;;;;;;;4.25;4.05;;;;;;;7.87;100.00;100550.06;6000106;23;20023;-70
2023/04/11 04:25:19;;;;;;;4.35;4.03;;;;;;;7.73;100.00;100528.94;5980793;23;20035;-70
2023/04/11 04:27:46;;;;;;;4.30;3.95;;;;;;;7.67;100.00;100506.53;5995269;23;20011;-71
2023/04/11 04:30:17;;;;;;;3.92;3.70;;;;;;;7.80;100.00;100548.66;6006739;23;20151;-70
2023/04/11 04:32:44;;;;;;;3.90;3.70;;;;;;;7.95;100.00;100574.13;5987264;23;20039;-70
2023/04/11 04:35:15;;;;;;;6.38;4.63;;;;;;;7.86;100.00;100566.69;6002672;23;20035;-70
2023/04/11 04:37:44;;;;;;;6.82;5.60;;;;;;;7.29;100.00;100490.72;5971957;23;20055;-70
2023/04/11 04:40:12;;;;;;;3.92;3.72;;;;;;;7.76;100.00;100574.06;5994892;23;20079;-70
2023/04/11 04:42:42;;;;;;;16.40;5.07;;;;;;;7.81;100.00;100584.31;5995136;23;20040;-69
2023/04/11 04:45:10;;;;;;;8.50;3.42;;;;;;;7.25;100.00;100509.19;5995639;23;20031;-70
2023/04/11 04:47:37;;;;;;;4.97;3.83;;;;;;;7.74;100.00;100607.25;5995327;23;20031;-70
2023/04/11 04:50:04;;;;;;;4.35;4.05;;;;;;;7.76;100.00;100621.09;5979780;23;20054;-70
2023/04/11 04:52:30;;;;;;;6.10;3.97;;;;;;;7.49;100.00;100551.72;6000671;23;20023;-70
2023/04/11 04:54:57;;;;;;;6.20;4.10;;;;;;;7.29;100.00;100522.06;5997799;23;20023;-70
2023/04/11 04:57:28;;;;;;;17.45;4.35;;;;;;;7.85;100.00;100604.16;5996804;23;20030;-71
2023/04/11 04:59:56;;;;;;;6.50;4.13;;;;;;;7.85;100.00;100601.56;5996947;23;20084;-69
2023/04/11 05:02:25;;;;;;;13.40;4.47;;;;;;;7.86;100.00;100610.22;5972425;23;20102;-70
2023/04/11 05:04:53;;;;;;;13.60;3.90;;;;;;;7.87;100.00;100601.50;6000871;23;20035;-69
2023/04/11 05:07:22;;;;;;;4.68;4.10;;;;;;;7.54;100.00;100549.78;5998724;23;20075;-70
2023/04/11 05:09:48;;;;;;;5.00;4.57;;;;;;;7.89;100.00;100617.94;5999131;23;20664;-70
2023/04/11 05:12:16;;;;;;;3.88;3.47;;;;;;;7.61;100.00;100563.41;5994347;23;20054;-70
2023/04/11 05:14:42;;;;;;;9.30;4.18;;;;;;;7.94;100.00;100616.84;5995071;23;20408;-70
2023/04/11 05:17:08;;;;;;;4.10;3.75;;;;;;;7.92;100.00;100620.44;5979900;23;20039;-70
2023/04/11 05:19:35;;;;;;;4.78;4.38;;;;;;;7.84;100.00;100630.34;5981361;23;20097;-70
2023/04/11 05:22:01;;;;;;;6.50;4.82;;;;;;;7.38;100.00;100563.47;6004061;23;20051;-69
2023/04/11 05:24:27;;;;;;;9.27;4.22;;;;;;;7.67;100.00;100607.56;6000081;23;20063;-69
2023/04/11 05:26:55;;;;;;;4.00;3.80;;;;;;;7.74;100.00;100624.69;5992561;23;20030;-70
2023/04/11 05:29:21;;;;;;;5.05;4.60;;;;;;;7.75;100.00;100623.75;5996827;23;20027;-70
2023/04/11 05:31:48;;;;;;;4.70;4.35;;;;;;;7.36;100.00;100546.16;6004094;23;20027;-70
2023/04/11 05:34:14;;;;;;;6.38;5.28;;;;;;;7.89;100.00;100657.16;5993668;23;20550;-69
2023/04/11 05:36:41;;;;;;;19.27;3.95;;;;;;;7.98;100.00;100636.72;5999398;23;20023;-71
2023/04/11 05:39:07;;;;;;;13.93;4.13;;;;;;;8.01;100.00;100633.09;5996654;23;20038;-71
2023/04/11 05:41:34;;;;;;;4.22;3.90;;;;;;;7.65;100.00;100573.66;6002637;23;20799;-71
2023/04/11 05:44:00;;;;;;;3.80;3.60;;;;;;;8.06;100.00;100638.13;5996233;23;20403;-69
2023/04/11 05:46:29;;;;;;;7.32;4.63;;;;;;;7.58;100.00;100572.25;5995380;23;20039;-71
2023/04/11 05:48:59;;;;;;;6.25;4.38;;;;;;;8.02;100.00;100647.03;5996237;23;20513;-70
2023/04/11 05:51:26;;;;;;;4.25;3.95;;;;;;;8.11;100.00;100644.03;5995571;23;20105;-68
2023/04/11 05:53:52;;;;;;;11.05;5.38;;;;;;;7.67;100.00;100573.59;6000946;23;20027;-68
2023/04/11 05:56:19;;;;;;;8.32;4.25;;;;;;;8.23;100.00;100660.94;5997589;23;20027;-70
2023/04/11 05:58:45;;;;;;;6.00;5.47;;;;;;;8.26;100.00;100652.97;5990220;23;20035;-69
2023/04/11 06:01:17;;;;;;;10.95;4.07;;;;;;;8.22;100.00;100660.09;5996142;23;20027;-69
2023/04/11 06:03:44;;;;;;;4.18;3.95;;;;;;;8.25;100.00;100669.56;5988656;23;20084;-70
2023/04/11 06:06:11;;;;;;;3.85;3.65;;;;;;;8.31;100.00;100672.75;5998909;23;20038;-70
2023/04/11 06:08:38;;;;;;;5.10;4.50;;;;;;;8.33;100.00;100680.56;5973020;23;20043;-70
2023/04/11 06:11:04;;;;;;;5.53;3.88;;;;;;;7.94;100.00;100624.69;6000732;23;20037;-69
2023/04/11 06:13:31;;;;;;;4.72;4.28;;;;;;;8.24;100.00;100676.59;5993706;23;20015;-70
2023/04/11 06:15:57;;;;;;;4.97;4.57;;;;;;;7.75;100.00;100595.03;5998503;23;20019;-70
2023/04/11 06:18:24;;;;;;;15.15;4.70;;;;;;;8.12;100.00;100640.50;5990869;23;20018;-70
2023/04/11 06:20:50;;;;;;;5.10;4.43;;;;;;;8.39;100.00;100678.50;5964854;23;20053;-70
2023/04/11 06:23:17;;;;;;;4.05;3.65;;;;;;;8.30;100.00;100652.78;5999939;23;20019;-70
2023/04/11 06:25:43;;;;;;;4.18;3.97;;;;;;;8.65;100.00;100689.63;5996742;23;20110;-70
2023/04/11 06:28:10;;;;;;;15.50;4.70;;;;;;;8.19;100.00;100602.72;5991036;23;20037;-70
2023/04/11 06:30:36;;;;;;;5.07;4.40;;;;;;;8.90;100.00;100672.81;6003546;23;20582;-70
2023/04/11 06:33:02;;;;;;;9.70;4.10;;;;;;;8.99;100.00;100669.81;5997922;23;20021;-69
2023/04/11 06:35:29;;;;;;;7.75;4.05;;;;;;;8.89;100.00;100637.13;5983018;23;20038;-71
2023/04/11 06:37:56;;;;;;;5.65;4.15;;;;;;;8.81;98.56;100613.06;6007553;23;20046;-69
2023/04/11 06:40:22;;;;;;;4.53;3.75;;;;;;;9.05;97.49;100653.81;6001228;23;20031;-69
2023/04/11 06:42:48;;;;;;;7.18;4.88;;;;;;;8.86;96.64;100618.94;5993775;23;20020;-72
2023/04/11 06:45:15;;;;;;;4.68;4.35;;;;;;;8.64;96.56;100588.53;6002738;23;20023;-73
2023/04/11 06:47:41;;;;;;;7.43;4.35;;;;;;;9.04;95.04;100643.41;6003335;23;20023;-72
2023/04/11 06:50:08;;;;;;;5.32;4.20;;;;;;;8.95;94.50;100594.97;5977137;23;20082;-70
2023/04/11 06:52:35;;;;;;;4.57;4.28;;;;;;;8.65;92.81;100543.13;5994461;23;20011;-70
2023/04/11 06:55:02;;;;;;;4.07;3.88;;;;;;;8.89;94.03;100592.63;6010214;23;20088;-70
2023/04/11 06:57:28;;;;;;;17.80;4.00;;;;;;;8.97;94.19;100643.69;6002144;23;20025;-70
2023/04/11 06:59:55;;;;;;;7.07;4.22;;;;;;;8.57;94.67;100587.13;6000049;23;20745;-70
2023/04/11 07:02:23;;;;;;;11.07;4.10;;;;;;;8.68;95.11;100611.03;5999908;23;20035;-70
2023/04/11 07:04:50;;;;;;;10.15;4.93;;;;;;;8.73;95.35;100637.81;5996091;23;20027;-70
2023/04/11 07:07:17;;;;;;;3.97;3.78;;;;;;;9.02;95.33;100664.44;5977766;23;20424;-71
2023/04/11 07:09:43;;;;;;;4.47;4.15;;;;;;;9.14;94.39;100663.00;6000863;23;20041;-70
2023/04/11 07:12:09;;;;;;;3.78;3.58;;;;;;;9.32;94.33;100659.53;5984996;23;20035;-70
2023/04/11 07:14:38;;;;;;;4.38;4.00;;;;;;;8.77;93.23;100562.66;5995138;23;20591;-70
2023/04/11 07:17:04;;;;;;;4.80;3.95;;;;;;;9.24;93.05;100634.59;6006224;23;20103;-72
2023/04/11 07:19:31;;;;;;;6.80;4.03;;;;;;;9.23;93.31;100661.72;5996181;23;20117;-71
2023/04/11 07:21:57;;;;;;;5.55;4.20;;;;;;;9.27;93.54;100684.22;6001824;23;20019;-70
2023/04/11 07:24:24;;;;;;;4.10;3.80;;;;;;;9.24;94.33;100666.91;6002172;23;20609;-69
2023/04/11 07:26:52;;;;;;;4.07;3.88;;;;;;;9.26;94.12;100651.09;6003802;23;20026;-69
2023/04/11 07:29:19;;;;;;;4.50;4.15;;;;;;;9.38;94.47;100642.66;5998739;23;20121;-69
2023/04/11 07:31:45;;;;;;;18.88;5.03;;;;;;;9.63;91.93;100668.53;5993081;23;20043;-69
2023/04/11 07:34:11;;;;;;;8.27;4.45;;;;;;;9.78;90.34;100670.41;6001460;23;20065;-69
2023/04/11 07:36:38;;;;;;;9.60;4.70;;;;;;;9.46;89.52;100598.63;5979911;23;20034;-71
2023/04/11 07:39:07;;;;;;;4.22;3.92;;;;;;;9.90;86.78;100644.47;6002532;23;20029;-69
2023/04/11 07:41:35;;;;;;;6.65;4.20;;;;;;;9.71;86.42;100600.00;6002620;23;20027;-70
2023/04/11 07:44:05;;;;;;;6.32;3.95;;;;;;;9.77;85.44;100597.94;5996526;23;20411;-69
2023/04/11 07:46:32;;;;;;;6.63;4.57;;;;;;;9.58;85.94;100615.47;5961857;23;20046;-69
2023/04/11 07:48:59;;;;;;;4.53;4.22;;;;;;;9.58;86.15;100626.84;6000678;23;20046;-69
2023/04/11 07:51:26;;;;;;;6.30;4.65;;;;;;;9.70;86.22;100629.75;6002442;23;20958;-70
2023/04/11 07:53:53;;;;;;;4.63;4.32;;;;;;;9.41;84.93;100547.38;5998524;23;20051;-70
2023/04/11 07:56:19;;;;;;;3.80;3.60;;;;;;;9.89;84.34;100609.56;5996633;23;20495;-70
2023/04/11 07:58:46;;;;;;;5.63;5.13;;;;;;;9.87;82.86;100594.84;5994948;23;20961;-70
2023/04/11 08:01:23;;;;;;;4.47;4.25;;;;;;;10.21;81.86;100593.94;5995608;23;20043;-71
2023/04/11 08:03:52;;;;;;;13.30;4.60;;;;;;;10.22;80.99;100577.28;5996155;23;20716;-72
2023/04/11 08:06:19;;;;;;;10.05;4.30;;;;;;;10.22;79.70;100571.19;6000981;23;20055;-71
2023/04/11 08:08:47;;;;;;;10.02;5.13;;;;;;;9.87;81.05;100518.84;6000226;23;20031;-71
2023/04/11 08:11:14;;;;;;;11.80;3.70;;;;;;;10.08;78.61;100495.88;5982047;23;20015;-71
2023/04/11 08:13:41;;;;;;;4.18;3.88;;;;;;;10.73;78.00;100579.84;6005970;23;20438;-70
2023/04/11 08:16:10;;;;;;;4.25;4.05;;;;;;;10.41;75.90;100511.59;6008460;23;20019;-69
2023/04/11 08:18:40;;;;;;;4.28;4.03;;;;;;;9.86;75.02;100447.22;5998046;23;20124;-70
2023/04/11 08:21:09;;;;;;;18.05;4.63;;;;;;;10.18;74.68;100479.56;6004628;23;20062;-70
2023/04/11 08:23:36;;;;;;;7.72;3.97;;;;;;;9.77;75.52;100452.94;6002902;23;20034;-70
2023/04/11 08:26:05;;;;;;;11.65;4.93;;;;;;;10.08;76.72;100514.22;6000951;23;20054;-70
2023/04/11 08:28:32;;;;;;;8.15;4.50;;;;;;;9.04;76.86;100351.09;5999148;23;20042;-70
2023/04/11 08:31:02;;;;;;;5.22;4.05;;;;;;;9.73;77.43;100507.28;5996829;23;20103;-70
2023/04/11 08:33:29;;;;;;;5.15;4.00;;;;;;;10.21;77.24;100551.16;6003539;23;20105;-70
2023/04/11 08:35:55;;;;;;;4.43;4.22;;;;;;;10.29;75.52;100484.22;6002840;23;20015;-70
2023/04/11 08:38:22;;;;;;;4.00;3.80;;;;;;;10.80;74.13;100509.47;5991874;23;20026;-70
2023/04/11 08:40:48;;;;;;;4.63;4.32;;;;;;;10.97;71.39;100465.59;5994912;23;20019;-69
2023/04/11 08:43:15;;;;;;;8.13;4.10;;;;;;;10.91;69.98;100415.22;6004604;23;20031;-70
2023/04/11 08:45:41;;;;;;;3.75;3.55;;;;;;;10.90;68.59;100367.09;5990061;23;20042;-72
2023/04/11 08:48:10;;;;;;;8.27;4.00;;;;;;;11.25;68.25;100411.44;6000045;23;20379;-71
2023/04/11 08:50:40;;;;;;;5.93;4.55;;;;;;;11.02;66.76;100360.28;5998362;23;20079;-71
2023/04/11 08:53:07;;;;;;;4.20;4.00;;;;;;;11.00;66.85;100351.66;5996386;23;20026;-70
2023/04/11 08:55:35;;;;;;;7.82;4.07;;;;;;;10.70;65.17;100258.03;5992607;23;20035;-71
2023/04/11 08:58:02;;;;;;;4.00;3.80;;;;;;;11.31;65.03;100336.69;6004665;23;20033;-71
2023/04/11 09:00:31;;;;;;;4.60;4.30;;;;;;;11.36;64.88;100311.78;6007453;23;20042;-70
2023/04/11 09:03:00;;;;;;;7.25;4.38;;;;;;;11.21;64.36;100265.47;6000466;23;20035;-70
2023/04/11 09:05:29;;;;;;;9.85;4.60;;;;;;;11.30;63.70;100282.44;6003473;23;20083;-72
2023/04/11 09:07:57;;;;;;;5.20;4.10;;;;;;;11.41;62.49;100251.09;5995405;23;20035;-72
2023/04/11 09:10:25;;;;;;;4.15;3.78;;;;;;;11.29;60.01;100131.03;5991338;23;20023;-70
2023/04/11 09:12:53;;;;;;;4.80;4.50;;;;;;;11.24;61.23;100178.59;5996288;23;20347;-70
2023/04/11 09:15:22;;;;;;;5.43;4.55;;;;;;;10.01;60.73;99968.44;5980832;23;20035;-70
2023/04/11 09:17:49;;;;;;;12.85;4.60;;;;;;;11.35;61.66;100197.16;5996278;23;20027;-70
2023/04/11 09:20:20;;;;;;;4.10;3.80;;;;;;;11.42;60.84;100173.94;5998047;23;20152;-72
2023/04/11 09:22:49;;;;;;;8.00;4.68;;;;;;;11.13;61.23;100139.06;5989475;23;20043;-71
2023/04/11 09:25:20;;;;;;;6.90;4.20;;;;;;;11.17;61.46;100144.00;6002077;23;20516;-71
2023/04/11 09:27:47;;;;;;;4.80;4.32;;;;;;;11.61;61.06;100197.28;5996152;23;20449;-71
2023/04/11 09:30:22;;;;;;;4.82;4.40;;;;;;;12.24;61.47;100284.41;6002193;23;20057;-71
2023/04/11 09:32:53;;;;;;;4.50;4.30;;;;;;;12.83;59.83;100244.47;5999813;23;20027;-71
2023/04/11 09:35:24;;;;;;;4.95;4.55;;;;;;;12.22;57.31;100081.91;6001571;23;20048;-71
2023/04/11 09:37:59;;;;;;;4.30;4.10;;;;;;;12.30;57.39;100087.50;5996359;23;20840;-71
2023/04/11 09:40:30;;;;;;;4.53;4.32;;;;;;;12.56;57.36;100105.91;5974937;23;20035;-71
2023/04/11 09:42:59;;;;;;;4.50;4.30;;;;;;;12.27;57.42;100079.81;5999593;23;20015;-71
2023/04/11 09:45:27;;;;;;;4.30;4.10;;;;;;;12.16;57.59;100067.41;5996674;23;20030;-70
2023/04/11 09:47:55;;;;;;;4.60;4.30;;;;;;;12.43;57.54;100107.69;5993559;23;20019;-70
2023/04/11 09:50:23;;;;;;;4.82;4.40;;;;;;;12.17;57.77;100070.88;5996494;23;20056;-71
2023/04/11 09:52:51;;;;;;;4.72;4.40;;;;;;;11.76;59.39;100096.38;5987018;23;20027;-71
2023/04/11 09:55:19;;;;;;;4.57;4.38;;;;;;;11.57;60.40;100151.94;5964368;23;20087;-70
2023/04/11 09:57:53;;;;;;;4.85;4.22;;;;;;;11.16;61.45;100137.09;5999083;23;20313;-73
2023/04/11 10:00:23;;;;;;;4.18;3.97;;;;;;;11.33;61.57;100140.41;5989540;23;20007;-71
2023/04/11 10:02:51;;;;;;;6.13;4.70;;;;;;;11.67;61.22;100180.28;6001233;23;20027;-72
2023/04/11 10:05:20;;;;;;;4.35;4.05;;;;;;;11.81;60.41;100160.94;5995256;23;20439;-71
2023/04/11 10:07:51;;;;;;;4.53;4.32;;;;;;;11.83;58.93;100123.09;6006449;23;20038;-73
2023/04/11 10:10:20;;;;;;;4.45;4.20;;;;;;;11.59;59.32;100115.06;6003667;23;20023;-72
2023/04/11 10:12:47;;;;;;;5.63;4.30;;;;;;;11.58;59.91;100158.88;5973002;23;20037;-72
2023/04/11 10:15:14;;;;;;;4.43;4.20;;;;;;;12.00;59.17;100182.47;5994452;23;20081;-70
2023/04/11 10:17:41;;;;;;;4.80;4.50;;;;;;;12.24;58.90;100179.16;6001880;23;20030;-71
2023/04/11 10:20:42;;;;;;;6.18;4.00;;;;;;;12.26;57.50;100130.75;5995547;23;22041;-72
2023/04/11 10:23:09;;;;;;;8.70;6.75;;;;;;;11.98;57.12;100043.19;5995919;23;20666;-70
2023/04/11 10:25:58;;;;;;;7.28;4.65;;;;;;;12.02;53.84;99895.72;6000406;23;20021;-71
2023/04/11 10:28:37;;;;;;;4.47;4.28;;;;;;;11.40;53.35;99815.06;5980325;23;20434;-72
2023/04/11 10:31:15;;;;;;;4.43;4.22;;;;;;;11.84;54.38;99974.09;5977984;23;20097;-70
2023/04/11 10:34:12;;;;;;;5.95;4.60;;;;;;;12.45;54.23;100050.53;5991779;23;20060;-70
2023/04/11 10:37:02;;;;;;;5.32;4.88;;;;;;;11.92;55.37;100019.97;6001365;23;20050;-70
2023/04/11 10:39:50;;;;;;;4.72;4.28;;;;;;;11.23;56.52;100010.59;5999529;23;20098;-69
2023/04/11 10:42:33;;;;;;;7.43;4.32;;;;;;;11.65;56.55;100098.06;6006615;23;20022;-70
2023/04/11 10:45:18;;;;;;;5.05;4.13;;;;;;;11.81;54.73;100021.59;6006005;23;20052;-70
2023/04/11 10:47:50;;;;;;;4.60;4.40;;;;;;;11.84;53.05;99988.06;5998527;23;20528;-70
2023/04/11 10:50:26;;;;;;;;;;;;;;;11.34;53.21;99914.34;5973645;23;20570;-71
2023/04/11 10:52:58;;;;;;;4.47;4.28;;;;;;;11.30;53.24;99941.78;6002956;23;19915;-70
2023/04/11 10:55:27;;;;;;;7.47;4.50;;;;;;;12.07;53.14;100046.16;6000813;23;20027;-71
2023/04/11 10:58:07;;;;;;;4.53;4.30;;;;;;;12.51;51.33;99989.59;6000568;23;20081;-70
2023/04/11 11:00:49;;;;;;;5.43;4.45;;;;;;;12.33;50.59;99965.44;5999965;23;20525;-70
2023/04/11 11:03:24;;;;;;;4.07;3.88;;;;;;;11.72;50.05;99836.47;5996982;23;20030;-70
2023/04/11 11:06:10;;;;;;;4.80;4.40;;;;;;;12.18;49.56;99909.47;5998617;23;20789;-70
2023/04/11 11:08:40;;;;;;;4.68;4.32;;;;;;;12.76;49.31;99986.00;5998973;23;20655;-70
2023/04/11 11:11:09;;;;;;;4.45;4.25;;;;;;;12.43;48.90;99945.41;5999085;23;20072;-72
2023/04/11 11:13:43;;;;;;;4.68;4.28;;;;;;;12.32;49.78;99934.78;5994613;23;20023;-70
2023/04/11 11:16:15;;;;;;;4.30;4.10;;;;;;;12.01;49.56;99915.06;6000794;23;20011;-70
2023/04/11 11:18:53;;;;;;;4.75;4.30;;;;;;;12.79;49.20;100043.72;5988509;23;20031;-69
2023/04/11 11:21:26;;;;;;;4.00;3.80;;;;;;;12.84;49.24;100057.38;5997768;23;20027;-69
2023/04/11 11:24:02;;;;;;;4.80;4.40;;;;;;;12.45;47.87;99914.53;5977770;23;20027;-70
2023/04/11 11:26:40;;;;;;;4.95;4.50;;;;;;;12.24;48.53;99889.78;5996519;23;20050;-70
2023/04/11 11:29:07;;;;;;;5.00;4.60;;;;;;;12.99;48.76;100044.91;5970904;23;20095;-70
2023/04/11 11:31:40;;;;;;;5.25;4.85;;;;;;;12.93;48.21;100008.50;5979407;23;20034;-70